sensor_id;sensor_type;location;lat;lon;timestamp;temperature;humidity
34147;DHT22;20423;49.448;9.056;2023-04-30T00:01:43;9.00;99.90
34147;DHT22;20423;49.448;9.056;2023-04-30T00:04:08;8.90;99.90
34147;DHT22;20423;49.448;9.056;2023-04-30T00:06:34;9.00;99.90
34147;DHT22;20423;49.448;9.056;2023-04-30T00:09:00;9.00;99.90
34147;DHT22;20423;49.448;9.056;2023-04-30T00:11:26;9.00;99.90
34147;DHT22;20423;49.448;9.056;2023-04-30T00:13:52;9.00;99.90
34147;DHT22;20423;49.448;9.056;2023-04-30T00:16:18;8.90;99.90
34147;DHT22;20423;49.448;9.056;2023-04-30T00:18:44;8.90;99.90
34147;DHT22;20423;49.448;9.056;2023-04-30T00:21:10;8.90;99.90
34147;DHT22;20423;49.448;9.056;2023-04-30T00:23:36;9.00;99.90
34147;DHT22;20423;49.448;9.056;2023-04-30T00:26:01;8.90;99.90
34147;DHT22;20423;49.448;9.056;2023-04-30T00:28:27;8.90;99.90
34147;DHT22;20423;49.448;9.056;2023-04-30T00:30:53;8.90;99.90
34147;DHT22;20423;49.448;9.056;2023-04-30T00:33:19;8.90;99.90
34147;DHT22;20423;49.448;9.056;2023-04-30T00:35:45;8.90;99.90
34147;DHT22;20423;49.448;9.056;2023-04-30T00:38:11;8.90;99.90
34147;DHT22;20423;49.448;9.056;2023-04-30T00:40:39;8.90;99.90
34147;DHT22;20423;49.448;9.056;2023-04-30T00:43:06;8.90;99.90
34147;DHT22;20423;49.448;9.056;2023-04-30T00:45:32;8.90;99.90
34147;DHT22;20423;49.448;9.056;2023-04-30T00:47:58;8.80;99.90
34147;DHT22;20423;49.448;9.056;2023-04-30T00:50:24;8.80;99.90
34147;DHT22;20423;49.448;9.056;2023-04-30T00:52:50;8.80;99.90
34147;DHT22;20423;49.448;9.056;2023-04-30T00:55:22;8.80;99.90
34147;DHT22;20423;49.448;9.056;2023-04-30T00:57:48;8.80;99.90
34147;DHT22;20423;49.448;9.056;2023-04-30T01:00:13;8.80;99.90
34147;DHT22;20423;49.448;9.056;2023-04-30T01:02:39;8.80;99.90
34147;DHT22;20423;49.448;9.056;2023-04-30T01:05:06;8.80;99.90
34147;DHT22;20423;49.448;9.056;2023-04-30T01:07:36;8.80;99.90
34147;DHT22;20423;49.448;9.056;2023-04-30T01:10:10;8.70;99.90
34147;DHT22;20423;49.448;9.056;2023-04-30T01:12:42;8.70;99.90
34147;DHT22;20423;49.448;9.056;2023-04-30T01:15:28;8.70;99.90
34147;DHT22;20423;49.448;9.056;2023-04-30T01:18:08;8.60;99.90
34147;DHT22;20423;49.448;9.056;2023-04-30T01:20:40;8.70;99.90
34147;DHT22;20423;49.448;9.056;2023-04-30T01:23:29;8.70;99.90
34147;DHT22;20423;49.448;9.056;2023-04-30T01:28:35;8.60;99.90
34147;DHT22;20423;49.448;9.056;2023-04-30T01:34:10;8.60;99.90
34147;DHT22;20423;49.448;9.056;2023-04-30T01:37:19;8.60;99.90
34147;DHT22;20423;49.448;9.056;2023-04-30T01:40:21;8.60;99.90
34147;DHT22;20423;49.448;9.056;2023-04-30T01:42:59;8.60;99.90
34147;DHT22;20423;49.448;9.056;2023-04-30T01:51:25;8.60;99.90
34147;DHT22;20423;49.448;9.056;2023-04-30T01:53:56;8.60;99.90
34147;DHT22;20423;49.448;9.056;2023-04-30T01:56:31;8.60;99.90
34147;DHT22;20423;49.448;9.056;2023-04-30T01:58:58;8.60;99.90
34147;DHT22;20423;49.448;9.056;2023-04-30T02:01:30;8.60;99.90
34147;DHT22;20423;49.448;9.056;2023-04-30T02:03:56;8.60;99.90
34147;DHT22;20423;49.448;9.056;2023-04-30T02:06:23;8.60;99.90
34147;DHT22;20423;49.448;9.056;2023-04-30T02:08:56;8.60;99.90
34147;DHT22;20423;49.448;9.056;2023-04-30T02:11:28;8.60;99.90
34147;DHT22;20423;49.448;9.056;2023-04-30T02:13:54;8.60;99.90
34147;DHT22;20423;49.448;9.056;2023-04-30T02:16:20;8.60;99.90
34147;DHT22;20423;49.448;9.056;2023-04-30T02:18:46;8.50;99.90
34147;DHT22;20423;49.448;9.056;2023-04-30T02:21:12;8.60;99.90
34147;DHT22;20423;49.448;9.056;2023-04-30T02:23:39;8.50;99.90
34147;DHT22;20423;49.448;9.056;2023-04-30T02:26:05;8.50;99.90
34147;DHT22;20423;49.448;9.056;2023-04-30T02:28:30;8.50;99.90
34147;DHT22;20423;49.448;9.056;2023-04-30T02:30:56;8.50;99.90
34147;DHT22;20423;49.448;9.056;2023-04-30T02:33:22;8.50;99.90
34147;DHT22;20423;49.448;9.056;2023-04-30T02:35:47;8.50;99.90
34147;DHT22;20423;49.448;9.056;2023-04-30T02:38:13;8.50;99.90
34147;DHT22;20423;49.448;9.056;2023-04-30T02:40:40;8.50;99.90
34147;DHT22;20423;49.448;9.056;2023-04-30T02:43:07;8.50;99.90
34147;DHT22;20423;49.448;9.056;2023-04-30T02:45:32;8.50;99.90
34147;DHT22;20423;49.448;9.056;2023-04-30T02:47:58;8.50;99.90
34147;DHT22;20423;49.448;9.056;2023-04-30T02:50:24;8.50;99.90
34147;DHT22;20423;49.448;9.056;2023-04-30T02:52:50;8.50;99.90
34147;DHT22;20423;49.448;9.056;2023-04-30T02:55:15;8.50;99.90
34147;DHT22;20423;49.448;9.056;2023-04-30T02:57:41;8.40;99.90
34147;DHT22;20423;49.448;9.056;2023-04-30T03:00:07;8.40;99.90
34147;DHT22;20423;49.448;9.056;2023-04-30T03:02:34;8.50;99.90
34147;DHT22;20423;49.448;9.056;2023-04-30T03:05:01;8.40;99.90
34147;DHT22;20423;49.448;9.056;2023-04-30T03:07:27;8.40;99.90
34147;DHT22;20423;49.448;9.056;2023-04-30T03:09:52;8.40;99.90
34147;DHT22;20423;49.448;9.056;2023-04-30T03:12:18;8.30;99.90
34147;DHT22;20423;49.448;9.056;2023-04-30T03:14:44;8.30;99.90
34147;DHT22;20423;49.448;9.056;2023-04-30T03:17:10;8.40;99.90
34147;DHT22;20423;49.448;9.056;2023-04-30T03:19:36;8.30;99.90
34147;DHT22;20423;49.448;9.056;2023-04-30T03:22:02;8.30;99.90
34147;DHT22;20423;49.448;9.056;2023-04-30T03:24:27;8.30;99.90
34147;DHT22;20423;49.448;9.056;2023-04-30T03:26:53;8.30;99.90
34147;DHT22;20423;49.448;9.056;2023-04-30T03:29:19;8.40;99.90
34147;DHT22;20423;49.448;9.056;2023-04-30T03:31:45;8.30;99.90
34147;DHT22;20423;49.448;9.056;2023-04-30T03:34:13;8.30;99.90
34147;DHT22;20423;49.448;9.056;2023-04-30T03:36:39;8.30;99.90
34147;DHT22;20423;49.448;9.056;2023-04-30T03:39:05;8.30;99.90
34147;DHT22;20423;49.448;9.056;2023-04-30T03:41:32;8.30;99.90
34147;DHT22;20423;49.448;9.056;2023-04-30T03:43:57;8.30;99.90
34147;DHT22;20423;49.448;9.056;2023-04-30T03:46:23;8.30;99.90
34147;DHT22;20423;49.448;9.056;2023-04-30T03:48:49;8.30;99.90
34147;DHT22;20423;49.448;9.056;2023-04-30T03:51:15;8.30;99.90
34147;DHT22;20423;49.448;9.056;2023-04-30T03:53:41;8.30;99.90
34147;DHT22;20423;49.448;9.056;2023-04-30T03:56:07;8.30;99.90
34147;DHT22;20423;49.448;9.056;2023-04-30T03:58:32;8.20;99.90
34147;DHT22;20423;49.448;9.056;2023-04-30T04:00:58;8.30;99.90
34147;DHT22;20423;49.448;9.056;2023-04-30T04:03:24;8.30;99.90
34147;DHT22;20423;49.448;9.056;2023-04-30T04:05:50;8.30;99.90
34147;DHT22;20423;49.448;9.056;2023-04-30T04:08:16;8.20;99.90
34147;DHT22;20423;49.448;9.056;2023-04-30T04:10:43;8.20;99.90
34147;DHT22;20423;49.448;9.056;2023-04-30T04:13:09;8.20;99.90
34147;DHT22;20423;49.448;9.056;2023-04-30T04:15:36;8.20;99.90
34147;DHT22;20423;49.448;9.056;2023-04-30T04:18:03;8.20;99.90
34147;DHT22;20423;49.448;9.056;2023-04-30T04:20:29;8.20;99.90
34147;DHT22;20423;49.448;9.056;2023-04-30T04:22:58;8.20;99.90
34147;DHT22;20423;49.448;9.056;2023-04-30T04:25:25;8.20;99.90
34147;DHT22;20423;49.448;9.056;2023-04-30T04:27:52;8.20;99.90
34147;DHT22;20423;49.448;9.056;2023-04-30T04:30:18;8.30;99.90
34147;DHT22;20423;49.448;9.056;2023-04-30T04:32:46;8.30;99.90
34147;DHT22;20423;49.448;9.056;2023-04-30T04:35:15;8.30;99.90
34147;DHT22;20423;49.448;9.056;2023-04-30T04:37:41;8.30;99.90
34147;DHT22;20423;49.448;9.056;2023-04-30T04:40:07;8.30;99.90
34147;DHT22;20423;49.448;9.056;2023-04-30T04:42:34;8.30;99.90
34147;DHT22;20423;49.448;9.056;2023-04-30T04:45:00;8.30;99.90
34147;DHT22;20423;49.448;9.056;2023-04-30T04:47:29;8.40;99.90
34147;DHT22;20423;49.448;9.056;2023-04-30T04:49:54;8.40;99.90
34147;DHT22;20423;49.448;9.056;2023-04-30T04:52:20;8.40;99.90
34147;DHT22;20423;49.448;9.056;2023-04-30T04:54:46;8.40;99.90
34147;DHT22;20423;49.448;9.056;2023-04-30T04:57:12;8.40;99.90
34147;DHT22;20423;49.448;9.056;2023-04-30T04:59:38;8.40;99.90
34147;DHT22;20423;49.448;9.056;2023-04-30T05:02:04;8.40;99.90
34147;DHT22;20423;49.448;9.056;2023-04-30T05:04:29;8.40;99.90
34147;DHT22;20423;49.448;9.056;2023-04-30T05:06:55;8.40;99.90
34147;DHT22;20423;49.448;9.056;2023-04-30T05:09:36;8.50;99.90
34147;DHT22;20423;49.448;9.056;2023-04-30T05:12:02;8.50;99.90
34147;DHT22;20423;49.448;9.056;2023-04-30T05:14:28;8.50;99.90
34147;DHT22;20423;49.448;9.056;2023-04-30T05:16:54;8.60;99.90
34147;DHT22;20423;49.448;9.056;2023-04-30T05:19:20;8.70;99.90
34147;DHT22;20423;49.448;9.056;2023-04-30T05:21:46;8.70;99.90
34147;DHT22;20423;49.448;9.056;2023-04-30T05:24:12;8.70;99.90
34147;DHT22;20423;49.448;9.056;2023-04-30T05:26:37;8.80;99.90
34147;DHT22;20423;49.448;9.056;2023-04-30T05:29:03;8.80;99.90
34147;DHT22;20423;49.448;9.056;2023-04-30T05:31:29;8.90;99.90
34147;DHT22;20423;49.448;9.056;2023-04-30T05:33:56;9.00;99.90
34147;DHT22;20423;49.448;9.056;2023-04-30T05:36:22;9.10;99.90
34147;DHT22;20423;49.448;9.056;2023-04-30T05:38:48;9.10;99.90
34147;DHT22;20423;49.448;9.056;2023-04-30T05:45:01;9.20;99.90
34147;DHT22;20423;49.448;9.056;2023-04-30T05:47:27;9.40;99.90
34147;DHT22;20423;49.448;9.056;2023-04-30T05:49:53;9.40;99.90
34147;DHT22;20423;49.448;9.056;2023-04-30T05:52:19;9.40;99.90
34147;DHT22;20423;49.448;9.056;2023-04-30T05:54:44;9.50;99.90
34147;DHT22;20423;49.448;9.056;2023-04-30T05:57:12;9.50;99.90
34147;DHT22;20423;49.448;9.056;2023-04-30T05:59:38;9.60;99.90
34147;DHT22;20423;49.448;9.056;2023-04-30T06:02:03;9.80;99.90
34147;DHT22;20423;49.448;9.056;2023-04-30T06:04:30;9.90;99.90
34147;DHT22;20423;49.448;9.056;2023-04-30T06:06:56;9.90;99.90
34147;DHT22;20423;49.448;9.056;2023-04-30T06:09:21;9.90;99.90
34147;DHT22;20423;49.448;9.056;2023-04-30T06:11:47;10.10;99.90
34147;DHT22;20423;49.448;9.056;2023-04-30T06:14:17;10.00;99.90
34147;DHT22;20423;49.448;9.056;2023-04-30T06:16:46;10.10;99.90
34147;DHT22;20423;49.448;9.056;2023-04-30T06:19:11;10.00;99.90
34147;DHT22;20423;49.448;9.056;2023-04-30T06:21:37;10.10;99.90
34147;DHT22;20423;49.448;9.056;2023-04-30T06:24:03;10.10;99.90
34147;DHT22;20423;49.448;9.056;2023-04-30T06:26:30;10.20;99.90
34147;DHT22;20423;49.448;9.056;2023-04-30T06:28:56;10.30;99.90
34147;DHT22;20423;49.448;9.056;2023-04-30T06:31:22;10.60;99.90
34147;DHT22;20423;49.448;9.056;2023-04-30T06:33:48;10.80;99.90
34147;DHT22;20423;49.448;9.056;2023-04-30T06:36:15;11.00;99.90
34147;DHT22;20423;49.448;9.056;2023-04-30T06:38:41;10.90;99.90
34147;DHT22;20423;49.448;9.056;2023-04-30T06:41:08;10.70;99.90
34147;DHT22;20423;49.448;9.056;2023-04-30T06:43:34;10.50;99.90
34147;DHT22;20423;49.448;9.056;2023-04-30T06:45:59;10.60;99.90
34147;DHT22;20423;49.448;9.056;2023-04-30T06:48:25;10.70;99.90
34147;DHT22;20423;49.448;9.056;2023-04-30T06:50:51;10.70;99.90
34147;DHT22;20423;49.448;9.056;2023-04-30T06:53:17;10.70;99.90
34147;DHT22;20423;49.448;9.056;2023-04-30T06:55:44;10.70;99.90
34147;DHT22;20423;49.448;9.056;2023-04-30T06:58:11;10.70;99.90
34147;DHT22;20423;49.448;9.056;2023-04-30T07:00:37;10.60;99.90
34147;DHT22;20423;49.448;9.056;2023-04-30T07:03:02;10.50;99.90
34147;DHT22;20423;49.448;9.056;2023-04-30T07:05:29;10.60;99.90
34147;DHT22;20423;49.448;9.056;2023-04-30T07:07:56;10.60;99.90
34147;DHT22;20423;49.448;9.056;2023-04-30T07:10:22;10.70;99.90
34147;DHT22;20423;49.448;9.056;2023-04-30T07:12:48;10.70;99.90
34147;DHT22;20423;49.448;9.056;2023-04-30T07:15:14;10.70;99.90
34147;DHT22;20423;49.448;9.056;2023-04-30T07:17:39;10.70;99.90
34147;DHT22;20423;49.448;9.056;2023-04-30T07:20:07;10.70;99.90
34147;DHT22;20423;49.448;9.056;2023-04-30T07:22:33;10.70;99.90
34147;DHT22;20423;49.448;9.056;2023-04-30T07:25:00;10.80;99.90
34147;DHT22;20423;49.448;9.056;2023-04-30T07:27:26;10.80;99.90
34147;DHT22;20423;49.448;9.056;2023-04-30T07:29:53;10.90;99.90
34147;DHT22;20423;49.448;9.056;2023-04-30T07:32:19;10.80;99.90
34147;DHT22;20423;49.448;9.056;2023-04-30T07:34:45;10.90;99.90
34147;DHT22;20423;49.448;9.056;2023-04-30T07:37:11;11.00;99.90
34147;DHT22;20423;49.448;9.056;2023-04-30T07:39:38;11.10;99.90
34147;DHT22;20423;49.448;9.056;2023-04-30T07:42:06;11.10;99.90
34147;DHT22;20423;49.448;9.056;2023-04-30T07:44:31;11.30;99.90
34147;DHT22;20423;49.448;9.056;2023-04-30T07:46:57;11.50;99.90
34147;DHT22;20423;49.448;9.056;2023-04-30T07:49:23;11.60;99.90
34147;DHT22;20423;49.448;9.056;2023-04-30T07:51:49;11.70;99.90
34147;DHT22;20423;49.448;9.056;2023-04-30T07:54:15;11.70;99.90
34147;DHT22;20423;49.448;9.056;2023-04-30T07:56:41;11.70;99.90
34147;DHT22;20423;49.448;9.056;2023-04-30T07:59:07;11.80;99.90
34147;DHT22;20423;49.448;9.056;2023-04-30T08:01:33;11.90;99.90
34147;DHT22;20423;49.448;9.056;2023-04-30T08:03:58;11.90;99.90
34147;DHT22;20423;49.448;9.056;2023-04-30T08:06:24;11.80;99.90
34147;DHT22;20423;49.448;9.056;2023-04-30T08:08:52;11.90;99.90
34147;DHT22;20423;49.448;9.056;2023-04-30T08:11:17;12.00;99.90
34147;DHT22;20423;49.448;9.056;2023-04-30T08:13:44;12.10;99.90
34147;DHT22;20423;49.448;9.056;2023-04-30T08:16:09;12.10;99.90
34147;DHT22;20423;49.448;9.056;2023-04-30T08:18:35;12.20;99.90
34147;DHT22;20423;49.448;9.056;2023-04-30T08:21:03;12.30;99.90
34147;DHT22;20423;49.448;9.056;2023-04-30T08:23:30;12.40;99.90
34147;DHT22;20423;49.448;9.056;2023-04-30T08:25:56;12.50;99.90
34147;DHT22;20423;49.448;9.056;2023-04-30T08:28:22;12.80;99.90
34147;DHT22;20423;49.448;9.056;2023-04-30T08:30:47;13.10;99.90
34147;DHT22;20423;49.448;9.056;2023-04-30T08:33:13;13.30;99.90
34147;DHT22;20423;49.448;9.056;2023-04-30T08:35:39;13.70;99.90
34147;DHT22;20423;49.448;9.056;2023-04-30T08:38:04;13.60;99.90
34147;DHT22;20423;49.448;9.056;2023-04-30T08:40:34;13.30;99.90
34147;DHT22;20423;49.448;9.056;2023-04-30T08:43:08;13.30;99.90
34147;DHT22;20423;49.448;9.056;2023-04-30T08:45:36;13.70;99.90
34147;DHT22;20423;49.448;9.056;2023-04-30T08:48:03;15.30;99.90
34147;DHT22;20423;49.448;9.056;2023-04-30T08:50:30;16.00;99.90
34147;DHT22;20423;49.448;9.056;2023-04-30T08:52:59;15.60;99.90
34147;DHT22;20423;49.448;9.056;2023-04-30T08:55:26;15.50;99.90
34147;DHT22;20423;49.448;9.056;2023-04-30T08:57:52;15.40;99.90
34147;DHT22;20423;49.448;9.056;2023-04-30T09:00:18;15.00;99.90
34147;DHT22;20423;49.448;9.056;2023-04-30T09:02:44;16.10;99.90
34147;DHT22;20423;49.448;9.056;2023-04-30T09:05:13;16.90;99.90
34147;DHT22;20423;49.448;9.056;2023-04-30T09:07:43;16.50;99.90
34147;DHT22;20423;49.448;9.056;2023-04-30T09:10:18;15.70;99.90
34147;DHT22;20423;49.448;9.056;2023-04-30T09:13:06;15.50;99.90
34147;DHT22;20423;49.448;9.056;2023-04-30T09:15:34;15.20;99.90
34147;DHT22;20423;49.448;9.056;2023-04-30T09:18:11;15.10;99.90
34147;DHT22;20423;49.448;9.056;2023-04-30T09:20:38;15.10;99.90
34147;DHT22;20423;49.448;9.056;2023-04-30T09:23:17;15.10;99.90
34147;DHT22;20423;49.448;9.056;2023-04-30T09:25:43;14.70;99.90
34147;DHT22;20423;49.448;9.056;2023-04-30T09:28:12;15.00;99.90
34147;DHT22;20423;49.448;9.056;2023-04-30T09:30:39;15.00;99.90
34147;DHT22;20423;49.448;9.056;2023-04-30T09:33:05;16.10;99.90
34147;DHT22;20423;49.448;9.056;2023-04-30T09:35:36;17.50;99.90
34147;DHT22;20423;49.448;9.056;2023-04-30T09:38:03;17.90;99.90
34147;DHT22;20423;49.448;9.056;2023-04-30T09:40:41;17.10;99.90
34147;DHT22;20423;49.448;9.056;2023-04-30T09:43:07;16.30;99.90
34147;DHT22;20423;49.448;9.056;2023-04-30T09:45:46;16.10;99.90
34147;DHT22;20423;49.448;9.056;2023-04-30T09:48:23;16.00;99.90
34147;DHT22;20423;49.448;9.056;2023-04-30T09:50:50;15.80;99.90
34147;DHT22;20423;49.448;9.056;2023-04-30T09:53:16;15.80;99.90
34147;DHT22;20423;49.448;9.056;2023-04-30T09:55:44;15.70;99.90
34147;DHT22;20423;49.448;9.056;2023-04-30T09:58:11;15.70;99.90
34147;DHT22;20423;49.448;9.056;2023-04-30T10:00:37;15.90;99.90
34147;DHT22;20423;49.448;9.056;2023-04-30T10:03:09;16.30;99.90
34147;DHT22;20423;49.448;9.056;2023-04-30T10:05:46;16.70;99.90
34147;DHT22;20423;49.448;9.056;2023-04-30T10:08:31;16.80;99.90
34147;DHT22;20423;49.448;9.056;2023-04-30T10:11:02;16.60;99.90
34147;DHT22;20423;49.448;9.056;2023-04-30T10:13:31;16.50;99.90
34147;DHT22;20423;49.448;9.056;2023-04-30T10:16:00;16.20;99.90
34147;DHT22;20423;49.448;9.056;2023-04-30T10:18:36;16.20;99.90
34147;DHT22;20423;49.448;9.056;2023-04-30T10:21:06;16.20;99.90
34147;DHT22;20423;49.448;9.056;2023-04-30T10:23:40;16.50;99.90
34147;DHT22;20423;49.448;9.056;2023-04-30T10:26:10;16.30;99.90
34147;DHT22;20423;49.448;9.056;2023-04-30T10:28:41;15.90;99.90
34147;DHT22;20423;49.448;9.056;2023-04-30T10:31:08;15.70;99.90
34147;DHT22;20423;49.448;9.056;2023-04-30T10:36:46;15.40;99.90
34147;DHT22;20423;49.448;9.056;2023-04-30T10:39:18;15.50;99.90
34147;DHT22;20423;49.448;9.056;2023-04-30T10:41:46;15.60;99.90
34147;DHT22;20423;49.448;9.056;2023-04-30T10:44:13;15.50;99.90
34147;DHT22;20423;49.448;9.056;2023-04-30T10:46:39;15.90;99.90
34147;DHT22;20423;49.448;9.056;2023-04-30T10:49:05;16.50;99.90
34147;DHT22;20423;49.448;9.056;2023-04-30T10:51:58;17.30;99.90
34147;DHT22;20423;49.448;9.056;2023-04-30T10:54:30;17.80;99.90
34147;DHT22;20423;49.448;9.056;2023-04-30T10:57:13;17.70;99.90
34147;DHT22;20423;49.448;9.056;2023-04-30T11:02:41;16.80;99.90
34147;DHT22;20423;49.448;9.056;2023-04-30T11:05:15;16.30;99.90
34147;DHT22;20423;49.448;9.056;2023-04-30T11:07:55;16.30;99.90
34147;DHT22;20423;49.448;9.056;2023-04-30T11:10:22;16.80;99.90
34147;DHT22;20423;49.448;9.056;2023-04-30T11:12:54;17.20;99.90
34147;DHT22;20423;49.448;9.056;2023-04-30T11:15:20;17.30;99.90
34147;DHT22;20423;49.448;9.056;2023-04-30T11:17:49;17.30;99.90
34147;DHT22;20423;49.448;9.056;2023-04-30T11:20:20;17.50;99.90
34147;DHT22;20423;49.448;9.056;2023-04-30T11:22:46;17.80;99.90
34147;DHT22;20423;49.448;9.056;2023-04-30T11:25:12;17.50;99.80
34147;DHT22;20423;49.448;9.056;2023-04-30T11:27:41;17.50;99.90
34147;DHT22;20423;49.448;9.056;2023-04-30T11:30:16;18.10;99.90
34147;DHT22;20423;49.448;9.056;2023-04-30T11:32:44;18.40;98.90
34147;DHT22;20423;49.448;9.056;2023-04-30T11:35:12;19.10;96.20
34147;DHT22;20423;49.448;9.056;2023-04-30T11:37:40;18.80;96.90
34147;DHT22;20423;49.448;9.056;2023-04-30T11:40:09;17.70;96.80
34147;DHT22;20423;49.448;9.056;2023-04-30T11:42:40;17.10;99.10
34147;DHT22;20423;49.448;9.056;2023-04-30T11:47:48;17.00;99.90
34147;DHT22;20423;49.448;9.056;2023-04-30T11:50:19;17.20;99.90
34147;DHT22;20423;49.448;9.056;2023-04-30T11:52:52;17.00;99.90
34147;DHT22;20423;49.448;9.056;2023-04-30T11:55:20;16.90;99.90
34147;DHT22;20423;49.448;9.056;2023-04-30T11:57:51;17.00;99.90
34147;DHT22;20423;49.448;9.056;2023-04-30T12:00:21;17.00;98.50
34147;DHT22;20423;49.448;9.056;2023-04-30T12:02:48;17.00;99.90
34147;DHT22;20423;49.448;9.056;2023-04-30T12:05:24;17.40;99.90
34147;DHT22;20423;49.448;9.056;2023-04-30T12:07:56;17.50;98.60
34147;DHT22;20423;49.448;9.056;2023-04-30T12:10:22;17.90;99.90
34147;DHT22;20423;49.448;9.056;2023-04-30T12:12:49;18.30;98.60
34147;DHT22;20423;49.448;9.056;2023-04-30T12:15:18;18.60;97.90
34147;DHT22;20423;49.448;9.056;2023-04-30T12:17:44;18.70;99.10
34147;DHT22;20423;49.448;9.056;2023-04-30T12:20:12;19.00;97.20
34147;DHT22;20423;49.448;9.056;2023-04-30T12:22:41;18.60;96.40
34147;DHT22;20423;49.448;9.056;2023-04-30T12:25:11;18.00;96.20
34147;DHT22;20423;49.448;9.056;2023-04-30T12:27:45;16.90;99.00
34147;DHT22;20423;49.448;9.056;2023-04-30T12:30:14;16.30;99.90
34147;DHT22;20423;49.448;9.056;2023-04-30T12:32:45;16.00;99.90
34147;DHT22;20423;49.448;9.056;2023-04-30T12:35:15;16.20;99.90
34147;DHT22;20423;49.448;9.056;2023-04-30T12:37:48;16.80;99.80
34147;DHT22;20423;49.448;9.056;2023-04-30T12:40:20;17.70;99.90
34147;DHT22;20423;49.448;9.056;2023-04-30T12:42:47;18.30;97.30
34147;DHT22;20423;49.448;9.056;2023-04-30T12:45:40;19.00;96.00
34147;DHT22;20423;49.448;9.056;2023-04-30T12:47:59;19.20;95.50
34147;DHT22;20423;49.448;9.056;2023-04-30T12:50:25;18.00;96.60
34147;DHT22;20423;49.448;9.056;2023-04-30T12:52:51;17.90;97.50
34147;DHT22;20423;49.448;9.056;2023-04-30T12:55:18;18.00;98.00
34147;DHT22;20423;49.448;9.056;2023-04-30T12:58:03;17.40;96.20
34147;DHT22;20423;49.448;9.056;2023-04-30T13:00:43;17.20;98.00
34147;DHT22;20423;49.448;9.056;2023-04-30T13:03:08;16.70;97.50
34147;DHT22;20423;49.448;9.056;2023-04-30T13:05:34;16.80;97.60
34147;DHT22;20423;49.448;9.056;2023-04-30T13:08:03;16.80;98.40
34147;DHT22;20423;49.448;9.056;2023-04-30T13:10:31;17.00;98.20
34147;DHT22;20423;49.448;9.056;2023-04-30T13:12:57;17.30;97.80
34147;DHT22;20423;49.448;9.056;2023-04-30T13:15:23;18.10;98.30
34147;DHT22;20423;49.448;9.056;2023-04-30T13:17:48;17.80;96.00
34147;DHT22;20423;49.448;9.056;2023-04-30T13:20:17;17.60;96.60
34147;DHT22;20423;49.448;9.056;2023-04-30T13:22:43;17.80;97.90
34147;DHT22;20423;49.448;9.056;2023-04-30T13:25:09;18.50;94.40
34147;DHT22;20423;49.448;9.056;2023-04-30T13:27:34;18.90;94.20
34147;DHT22;20423;49.448;9.056;2023-04-30T13:30:02;19.10;93.30
34147;DHT22;20423;49.448;9.056;2023-04-30T13:32:28;18.60;93.30
34147;DHT22;20423;49.448;9.056;2023-04-30T13:34:54;18.20;94.20
34147;DHT22;20423;49.448;9.056;2023-04-30T13:37:21;18.30;96.00
34147;DHT22;20423;49.448;9.056;2023-04-30T13:39:47;18.10;93.30
34147;DHT22;20423;49.448;9.056;2023-04-30T13:42:15;17.80;94.80
34147;DHT22;20423;49.448;9.056;2023-04-30T13:44:41;17.40;95.10
34147;DHT22;20423;49.448;9.056;2023-04-30T13:47:10;17.40;95.30
34147;DHT22;20423;49.448;9.056;2023-04-30T13:49:36;17.50;94.50
34147;DHT22;20423;49.448;9.056;2023-04-30T13:52:07;17.70;94.80
34147;DHT22;20423;49.448;9.056;2023-04-30T13:54:33;18.10;92.30
34147;DHT22;20423;49.448;9.056;2023-04-30T13:56:59;18.40;94.40
34147;DHT22;20423;49.448;9.056;2023-04-30T13:59:25;18.30;94.00
34147;DHT22;20423;49.448;9.056;2023-04-30T14:01:51;18.30;93.00
34147;DHT22;20423;49.448;9.056;2023-04-30T14:04:16;18.40;92.70
34147;DHT22;20423;49.448;9.056;2023-04-30T14:06:43;18.20;92.70
34147;DHT22;20423;49.448;9.056;2023-04-30T14:09:08;18.00;94.00
34147;DHT22;20423;49.448;9.056;2023-04-30T14:11:34;17.90;96.60
34147;DHT22;20423;49.448;9.056;2023-04-30T14:14:00;17.40;94.30
34147;DHT22;20423;49.448;9.056;2023-04-30T14:16:25;17.10;94.40
34147;DHT22;20423;49.448;9.056;2023-04-30T14:18:51;17.20;94.10
34147;DHT22;20423;49.448;9.056;2023-04-30T14:21:17;17.60;94.60
34147;DHT22;20423;49.448;9.056;2023-04-30T14:23:43;18.00;93.20
34147;DHT22;20423;49.448;9.056;2023-04-30T14:26:11;17.70;92.80
34147;DHT22;20423;49.448;9.056;2023-04-30T14:28:37;17.30;93.20
34147;DHT22;20423;49.448;9.056;2023-04-30T14:31:03;17.10;94.30
34147;DHT22;20423;49.448;9.056;2023-04-30T14:33:30;17.10;95.30
34147;DHT22;20423;49.448;9.056;2023-04-30T14:35:56;17.40;93.50
34147;DHT22;20423;49.448;9.056;2023-04-30T14:38:24;17.80;94.00
34147;DHT22;20423;49.448;9.056;2023-04-30T14:40:50;18.30;92.20
34147;DHT22;20423;49.448;9.056;2023-04-30T14:43:16;18.30;92.40
34147;DHT22;20423;49.448;9.056;2023-04-30T14:45:42;18.10;92.30
34147;DHT22;20423;49.448;9.056;2023-04-30T14:48:09;17.80;92.60
34147;DHT22;20423;49.448;9.056;2023-04-30T14:50:35;17.50;93.90
34147;DHT22;20423;49.448;9.056;2023-04-30T14:53:01;17.00;93.60
34147;DHT22;20423;49.448;9.056;2023-04-30T14:55:28;16.70;93.80
34147;DHT22;20423;49.448;9.056;2023-04-30T14:57:53;16.80;94.30
34147;DHT22;20423;49.448;9.056;2023-04-30T15:00:20;16.90;94.60
34147;DHT22;20423;49.448;9.056;2023-04-30T15:02:46;17.10;94.40
34147;DHT22;20423;49.448;9.056;2023-04-30T15:05:12;17.50;93.60
34147;DHT22;20423;49.448;9.056;2023-04-30T15:07:38;18.10;92.90
34147;DHT22;20423;49.448;9.056;2023-04-30T15:10:04;18.80;92.40
34147;DHT22;20423;49.448;9.056;2023-04-30T15:12:31;19.30;90.30
34147;DHT22;20423;49.448;9.056;2023-04-30T15:14:56;19.10;90.70
34147;DHT22;20423;49.448;9.056;2023-04-30T15:17:23;19.00;89.60
34147;DHT22;20423;49.448;9.056;2023-04-30T15:19:48;18.80;90.30
34147;DHT22;20423;49.448;9.056;2023-04-30T15:22:14;18.20;90.70
34147;DHT22;20423;49.448;9.056;2023-04-30T15:24:40;17.90;92.70
34147;DHT22;20423;49.448;9.056;2023-04-30T15:27:06;17.80;93.00
34147;DHT22;20423;49.448;9.056;2023-04-30T15:29:32;17.90;92.00
34147;DHT22;20423;49.448;9.056;2023-04-30T15:31:58;18.40;91.60
34147;DHT22;20423;49.448;9.056;2023-04-30T15:34:24;19.30;90.30
34147;DHT22;20423;49.448;9.056;2023-04-30T15:36:50;19.50;91.10
34147;DHT22;20423;49.448;9.056;2023-04-30T15:39:16;19.70;87.20
34147;DHT22;20423;49.448;9.056;2023-04-30T15:41:43;19.60;84.90
34147;DHT22;20423;49.448;9.056;2023-04-30T15:44:09;19.20;86.50
34147;DHT22;20423;49.448;9.056;2023-04-30T15:46:35;19.20;87.10
34147;DHT22;20423;49.448;9.056;2023-04-30T15:49:01;19.30;87.70
34147;DHT22;20423;49.448;9.056;2023-04-30T15:51:26;19.30;88.20
34147;DHT22;20423;49.448;9.056;2023-04-30T15:53:54;19.60;86.10
34147;DHT22;20423;49.448;9.056;2023-04-30T15:56:20;19.30;86.90
34147;DHT22;20423;49.448;9.056;2023-04-30T15:58:53;18.70;87.40
34147;DHT22;20423;49.448;9.056;2023-04-30T16:01:19;18.20;90.00
34147;DHT22;20423;49.448;9.056;2023-04-30T16:03:45;18.00;90.70
34147;DHT22;20423;49.448;9.056;2023-04-30T16:06:11;18.30;90.30